sensor_id;sensor_type;location;lat;lon;timestamp;pressure;altitude;pressure_sealevel;temperature;humidity
10145;BME280;5113;41.822;23.564;2024-01-15T00:00:32;-10935.84;;;0.05;57.59
10145;BME280;5113;41.822;23.564;2024-01-15T00:03:38;-10945.25;;;0.39;56.53
10145;BME280;5113;41.822;23.564;2024-01-15T00:06:49;-10942.03;;;0.27;56.80
10145;BME280;5113;41.822;23.564;2024-01-15T00:09:56;-10933.19;;;-0.05;57.08
10145;BME280;5113;41.822;23.564;2024-01-15T00:13:03;-10950.44;;;0.58;56.29
10145;BME280;5113;41.822;23.564;2024-01-15T00:16:09;-10937.13;;;0.10;56.85
10145;BME280;5113;41.822;23.564;2024-01-15T00:19:17;-10904.34;;;-1.09;58.57
10145;BME280;5113;41.822;23.564;2024-01-15T00:22:25;-10934.03;;;-0.02;56.82
10145;BME280;5113;41.822;23.564;2024-01-15T00:25:32;-10928.44;;;-0.22;57.03
10145;BME280;5113;41.822;23.564;2024-01-15T00:28:38;-10935.84;;;0.05;56.30
10145;BME280;5113;41.822;23.564;2024-01-15T00:31:45;-10926.34;;;-0.29;56.85
10145;BME280;5113;41.822;23.564;2024-01-15T00:34:52;-10935.84;;;0.05;56.62
10145;BME280;5113;41.822;23.564;2024-01-15T00:38:00;-10935.84;;;0.05;56.94
10145;BME280;5113;41.822;23.564;2024-01-15T00:41:06;-10930.41;;;-0.15;56.87
10145;BME280;5113;41.822;23.564;2024-01-15T00:44:13;-10934.31;;;-0.01;56.71
10145;BME280;5113;41.822;23.564;2024-01-15T00:47:20;-10894.28;;;-1.46;59.49
10145;BME280;5113;41.822;23.564;2024-01-15T00:50:27;-10886.31;;;-1.75;61.27
10145;BME280;5113;41.822;23.564;2024-01-15T00:53:35;-10904.34;;;-1.09;60.29
10145;BME280;5113;41.822;23.564;2024-01-15T00:56:41;-10899.03;;;-1.28;59.59
10145;BME280;5113;41.822;23.564;2024-01-15T00:59:48;-10913.19;;;-0.77;58.56
10145;BME280;5113;41.822;23.564;2024-01-15T01:02:55;-10922.41;;;-0.44;57.22
10145;BME280;5113;41.822;23.564;2024-01-15T01:06:01;-10930.41;;;-0.15;57.22
10145;BME280;5113;41.822;23.564;2024-01-15T01:09:09;-10913.31;;;-0.77;58.00
10145;BME280;5113;41.822;23.564;2024-01-15T01:12:16;-10914.28;;;-0.73;58.15
10145;BME280;5113;41.822;23.564;2024-01-15T01:15:22;-10923.97;;;-0.38;56.97
10145;BME280;5113;41.822;23.564;2024-01-15T01:18:29;-10915.84;;;-0.68;57.80
10145;BME280;5113;41.822;23.564;2024-01-15T01:21:36;-10921.16;;;-0.48;57.84
10145;BME280;5113;41.822;23.564;2024-01-15T01:24:44;-10922.84;;;-0.42;57.23
10145;BME280;5113;41.822;23.564;2024-01-15T01:27:50;-10916.53;;;-0.65;58.15
10145;BME280;5113;41.822;23.564;2024-01-15T01:30:57;-10909.41;;;-0.91;58.21
10145;BME280;5113;41.822;23.564;2024-01-15T01:34:04;-10914.44;;;-0.73;57.78
10145;BME280;5113;41.822;23.564;2024-01-15T01:37:11;-10935.72;;;0.05;56.27
10145;BME280;5113;41.822;23.564;2024-01-15T01:40:20;-10945.25;;;0.39;55.76
10145;BME280;5113;41.822;23.564;2024-01-15T01:43:27;-10938.25;;;0.14;55.43
10145;BME280;5113;41.822;23.564;2024-01-15T01:46:34;-10913.88;;;-0.75;56.71
10145;BME280;5113;41.822;23.564;2024-01-15T01:49:44;-10904.63;;;-1.08;57.86
10145;BME280;5113;41.822;23.564;2024-01-15T01:52:53;-10900.16;;;-1.24;57.68
10145;BME280;5113;41.822;23.564;2024-01-15T01:56:02;-10899.03;;;-1.28;58.79
10145;BME280;5113;41.822;23.564;2024-01-15T01:59:10;-10905.75;;;-1.04;58.37
10145;BME280;5113;41.822;23.564;2024-01-15T02:02:17;-10878.59;;;-2.03;60.47
10145;BME280;5113;41.822;23.564;2024-01-15T02:05:25;-10908.84;;;-0.93;58.41
10145;BME280;5113;41.822;23.564;2024-01-15T02:08:32;-10901.00;;;-1.21;59.15
10145;BME280;5113;41.822;23.564;2024-01-15T02:11:40;-10926.06;;;-0.30;57.47
10145;BME280;5113;41.822;23.564;2024-01-15T02:14:46;-10918.50;;;-0.58;58.15
10145;BME280;5113;41.822;23.564;2024-01-15T02:18:00;-10923.97;;;-0.38;57.66
10145;BME280;5113;41.822;23.564;2024-01-15T02:21:08;-10923.97;;;-0.38;57.32
10145;BME280;5113;41.822;23.564;2024-01-15T02:24:16;-10918.91;;;-0.56;57.64
10145;BME280;5113;41.822;23.564;2024-01-15T02:27:22;-10925.63;;;-0.32;57.02
10145;BME280;5113;41.822;23.564;2024-01-15T02:30:30;-10909.53;;;-0.90;58.75
10145;BME280;5113;41.822;23.564;2024-01-15T02:33:37;-10922.56;;;-0.43;57.90
10145;BME280;5113;41.822;23.564;2024-01-15T02:36:44;-10915.97;;;-0.67;57.38
10145;BME280;5113;41.822;23.564;2024-01-15T02:39:51;-10917.25;;;-0.62;57.61
10145;BME280;5113;41.822;23.564;2024-01-15T02:42:58;-10918.34;;;-0.58;57.64
10145;BME280;5113;41.822;23.564;2024-01-15T02:46:04;-10926.47;;;-0.29;56.82
10145;BME280;5113;41.822;23.564;2024-01-15T02:49:10;-10919.75;;;-0.53;57.20
10145;BME280;5113;41.822;23.564;2024-01-15T02:52:17;-10931.53;;;-0.11;56.48
10145;BME280;5113;41.822;23.564;2024-01-15T02:55:25;-10901.56;;;-1.19;58.81
10145;BME280;5113;41.822;23.564;2024-01-15T02:58:34;-10901.56;;;-1.19;58.35
10145;BME280;5113;41.822;23.564;2024-01-15T03:01:41;-10917.25;;;-0.62;56.95
10145;BME280;5113;41.822;23.564;2024-01-15T03:04:47;-10903.09;;;-1.14;58.27
10145;BME280;5113;41.822;23.564;2024-01-15T03:07:54;-10916.69;;;-0.64;57.38
10145;BME280;5113;41.822;23.564;2024-01-15T03:11:02;-10910.78;;;-0.86;57.69
10145;BME280;5113;41.822;23.564;2024-01-15T03:14:09;-10905.47;;;-1.05;58.31
10145;BME280;5113;41.822;23.564;2024-01-15T03:17:16;-10910.66;;;-0.86;57.18
10145;BME280;5113;41.822;23.564;2024-01-15T03:20:23;-10920.59;;;-0.50;57.08
10145;BME280;5113;41.822;23.564;2024-01-15T03:23:30;-10929.41;;;-0.18;55.54
10145;BME280;5113;41.822;23.564;2024-01-15T03:26:37;-10897.50;;;-1.34;58.95
10145;BME280;5113;41.822;23.564;2024-01-15T03:29:44;-10887.56;;;-1.70;58.77
10145;BME280;5113;41.822;23.564;2024-01-15T03:32:51;-10878.47;;;-2.03;60.06
10145;BME280;5113;41.822;23.564;2024-01-15T03:35:58;-10902.41;;;-1.16;58.40
10145;BME280;5113;41.822;23.564;2024-01-15T03:39:05;-10905.75;;;-1.04;56.87
10145;BME280;5113;41.822;23.564;2024-01-15T03:42:13;-10857.06;;;-2.81;61.85
10145;BME280;5113;41.822;23.564;2024-01-15T03:45:20;-10861.81;;;-2.63;60.68
10145;BME280;5113;41.822;23.564;2024-01-15T03:48:27;-10863.78;;;-2.56;60.36
10145;BME280;5113;41.822;23.564;2024-01-15T03:51:33;-10892.31;;;-1.53;58.07
10145;BME280;5113;41.822;23.564;2024-01-15T03:54:40;-10904.34;;;-1.09;57.72
10145;BME280;5113;41.822;23.564;2024-01-15T03:57:50;-10913.03;;;-0.78;56.92
10145;BME280;5113;41.822;23.564;2024-01-15T04:00:56;-10899.19;;;-1.28;57.75
10145;BME280;5113;41.822;23.564;2024-01-15T04:04:03;-10898.75;;;-1.29;58.08
10145;BME280;5113;41.822;23.564;2024-01-15T04:07:10;-10906.03;;;-1.03;56.98
10145;BME280;5113;41.822;23.564;2024-01-15T04:10:17;-10908.56;;;-0.94;57.06
10145;BME280;5113;41.822;23.564;2024-01-15T04:13:25;-10864.34;;;-2.54;60.70
10145;BME280;5113;41.822;23.564;2024-01-15T04:16:32;-10897.63;;;-1.34;58.91
10145;BME280;5113;41.822;23.564;2024-01-15T04:19:38;-10898.47;;;-1.30;57.34
10145;BME280;5113;41.822;23.564;2024-01-15T04:22:50;-10893.56;;;-1.48;58.85
10145;BME280;5113;41.822;23.564;2024-01-15T04:25:57;-10886.59;;;-1.74;58.31
10145;BME280;5113;41.822;23.564;2024-01-15T04:29:06;-10880.41;;;-1.96;59.58
10145;BME280;5113;41.822;23.564;2024-01-15T04:32:12;-10888.97;;;-1.65;57.86
10145;BME280;5113;41.822;23.564;2024-01-15T04:35:19;-10909.13;;;-0.92;57.20
10145;BME280;5113;41.822;23.564;2024-01-15T04:38:26;-10910.94;;;-0.85;57.29
10145;BME280;5113;41.822;23.564;2024-01-15T04:41:32;-10913.03;;;-0.78;56.98
10145;BME280;5113;41.822;23.564;2024-01-15T04:44:40;-10901.84;;;-1.18;57.70
10145;BME280;5113;41.822;23.564;2024-01-15T04:47:47;-10912.19;;;-0.81;57.54
10145;BME280;5113;41.822;23.564;2024-01-15T04:50:53;-10922.28;;;-0.44;56.28
10145;BME280;5113;41.822;23.564;2024-01-15T04:54:00;-10919.91;;;-0.53;57.53
10145;BME280;5113;41.822;23.564;2024-01-15T04:57:07;-10912.06;;;-0.81;56.62
10145;BME280;5113;41.822;23.564;2024-01-15T05:00:16;-10909.94;;;-0.89;58.34
10145;BME280;5113;41.822;23.564;2024-01-15T05:03:23;-10902.41;;;-1.16;58.69
10145;BME280;5113;41.822;23.564;2024-01-15T05:06:30;-10906.59;;;-1.01;58.59
10145;BME280;5113;41.822;23.564;2024-01-15T05:09:36;-10913.59;;;-0.76;57.87
10145;BME280;5113;41.822;23.564;2024-01-15T05:12:43;-10919.19;;;-0.55;57.43
10145;BME280;5113;41.822;23.564;2024-01-15T05:15:51;-10913.59;;;-0.76;57.88
10145;BME280;5113;41.822;23.564;2024-01-15T05:18:58;-10923.41;;;-0.40;57.16
10145;BME280;5113;41.822;23.564;2024-01-15T05:22:04;-10908.69;;;-0.93;56.86
10145;BME280;5113;41.822;23.564;2024-01-15T05:25:11;-10901.00;;;-1.21;58.34
10145;BME280;5113;41.822;23.564;2024-01-15T05:28:18;-10898.75;;;-1.29;59.66
10145;BME280;5113;41.822;23.564;2024-01-15T05:31:26;-10925.22;;;-0.34;57.25
10145;BME280;5113;41.822;23.564;2024-01-15T05:34:33;-10891.19;;;-1.57;60.24
10145;BME280;5113;41.822;23.564;2024-01-15T05:37:43;-10913.19;;;-0.77;57.92
10145;BME280;5113;41.822;23.564;2024-01-15T05:40:49;-10895.13;;;-1.43;59.38
10145;BME280;5113;41.822;23.564;2024-01-15T05:43:56;-10901.28;;;-1.20;59.20
10145;BME280;5113;41.822;23.564;2024-01-15T05:47:04;-10909.53;;;-0.90;58.83
10145;BME280;5113;41.822;23.564;2024-01-15T05:50:13;-10897.06;;;-1.36;58.95
10145;BME280;5113;41.822;23.564;2024-01-15T05:53:20;-10925.22;;;-0.34;56.87
10145;BME280;5113;41.822;23.564;2024-01-15T05:56:26;-10902.25;;;-1.17;58.99
10145;BME280;5113;41.822;23.564;2024-01-15T05:59:33;-10910.38;;;-0.87;58.68
10145;BME280;5113;41.822;23.564;2024-01-15T06:02:42;-10917.53;;;-0.61;59.21
10145;BME280;5113;41.822;23.564;2024-01-15T06:05:49;-10913.72;;;-0.75;58.53
10145;BME280;5113;41.822;23.564;2024-01-15T06:08:56;-10915.13;;;-0.70;58.04
10145;BME280;5113;41.822;23.564;2024-01-15T06:12:05;-10915.56;;;-0.69;58.52
10145;BME280;5113;41.822;23.564;2024-01-15T06:15:12;-10921.16;;;-0.48;57.74
10145;BME280;5113;41.822;23.564;2024-01-15T06:18:20;-10914.56;;;-0.72;59.00
10145;BME280;5113;41.822;23.564;2024-01-15T06:21:27;-10922.28;;;-0.44;58.21
10145;BME280;5113;41.822;23.564;2024-01-15T06:24:33;-10933.19;;;-0.05;57.13
10145;BME280;5113;41.822;23.564;2024-01-15T06:27:42;-10938.81;;;0.16;57.07
10145;BME280;5113;41.822;23.564;2024-01-15T06:30:48;-10892.59;;;-1.52;59.40
10145;BME280;5113;41.822;23.564;2024-01-15T06:33:57;-10888.25;;;-1.68;61.54
10145;BME280;5113;41.822;23.564;2024-01-15T06:37:04;-10919.34;;;-0.55;58.17
10145;BME280;5113;41.822;23.564;2024-01-15T06:40:11;-10913.03;;;-0.78;59.51
10145;BME280;5113;41.822;23.564;2024-01-15T06:43:18;-10928.72;;;-0.21;57.58
10145;BME280;5113;41.822;23.564;2024-01-15T06:46:24;-10930.81;;;-0.13;57.55
10145;BME280;5113;41.822;23.564;2024-01-15T06:49:32;-10924.78;;;-0.35;58.07
10145;BME280;5113;41.822;23.564;2024-01-15T06:52:40;-10930.97;;;-0.13;57.55
10145;BME280;5113;41.822;23.564;2024-01-15T06:55:47;-10906.72;;;-1.01;58.99
10145;BME280;5113;41.822;23.564;2024-01-15T06:58:54;-10939.91;;;0.20;57.66
10145;BME280;5113;41.822;23.564;2024-01-15T07:02:01;-10902.53;;;-1.16;59.81
10145;BME280;5113;41.822;23.564;2024-01-15T07:05:10;-10941.47;;;0.25;57.93
10145;BME280;5113;41.822;23.564;2024-01-15T07:08:16;-10926.75;;;-0.28;58.31
10145;BME280;5113;41.822;23.564;2024-01-15T07:11:23;-10940.34;;;0.21;57.76
10145;BME280;5113;41.822;23.564;2024-01-15T07:14:29;-10960.78;;;0.95;56.71
10145;BME280;5113;41.822;23.564;2024-01-15T07:17:38;-10946.78;;;0.45;57.43
10145;BME280;5113;41.822;23.564;2024-01-15T07:20:46;-10946.37;;;0.43;57.83
10145;BME280;5113;41.822;23.564;2024-01-15T07:23:53;-10947.50;;;0.47;57.74
10145;BME280;5113;41.822;23.564;2024-01-15T07:27:00;-10945.53;;;0.40;57.86
10145;BME280;5113;41.822;23.564;2024-01-15T07:30:07;-10942.03;;;0.27;57.87
10145;BME280;5113;41.822;23.564;2024-01-15T07:33:14;-10949.44;;;0.54;58.50
10145;BME280;5113;41.822;23.564;2024-01-15T07:36:23;-10935.72;;;0.05;59.35
10145;BME280;5113;41.822;23.564;2024-01-15T07:39:30;-10958.84;;;0.88;57.83
10145;BME280;5113;41.822;23.564;2024-01-15T07:42:36;-10965.16;;;1.11;57.43
10145;BME280;5113;41.822;23.564;2024-01-15T07:45:45;-10973.00;;;1.40;56.47
10145;BME280;5113;41.822;23.564;2024-01-15T07:48:52;-10955.06;;;0.75;57.97
10145;BME280;5113;41.822;23.564;2024-01-15T07:52:03;-10979.84;;;1.64;57.07
10145;BME280;5113;41.822;23.564;2024-01-15T07:55:10;-10945.81;;;0.41;59.58
10145;BME280;5113;41.822;23.564;2024-01-15T07:58:17;-10962.06;;;1.00;57.94
10145;BME280;5113;41.822;23.564;2024-01-15T08:01:23;-10966.53;;;1.16;58.25
10145;BME280;5113;41.822;23.564;2024-01-15T08:04:31;-10974.53;;;1.45;57.23
10145;BME280;5113;41.822;23.564;2024-01-15T08:07:40;-10973.81;;;1.43;58.00
10145;BME280;5113;41.822;23.564;2024-01-15T08:10:46;-10960.66;;;0.95;58.45
10145;BME280;5113;41.822;23.564;2024-01-15T08:13:53;-10978.03;;;1.58;57.13
10145;BME280;5113;41.822;23.564;2024-01-15T08:17:00;-10982.38;;;1.74;57.32
10145;BME280;5113;41.822;23.564;2024-01-15T08:20:08;-10970.59;;;1.31;58.02
10145;BME280;5113;41.822;23.564;2024-01-15T08:23:16;-10975.38;;;1.48;58.30
10145;BME280;5113;41.822;23.564;2024-01-15T08:26:23;-10982.50;;;1.74;57.44
10145;BME280;5113;41.822;23.564;2024-01-15T08:29:30;-10988.25;;;1.95;56.61
10145;BME280;5113;41.822;23.564;2024-01-15T08:32:38;-10981.41;;;1.70;56.72
10145;BME280;5113;41.822;23.564;2024-01-15T08:35:47;-10977.47;;;1.56;57.94
10145;BME280;5113;41.822;23.564;2024-01-15T08:38:55;-11002.97;;;2.48;56.44
10145;BME280;5113;41.822;23.564;2024-01-15T08:42:01;-10977.75;;;1.57;58.05
10145;BME280;5113;41.822;23.564;2024-01-15T08:45:09;-10990.94;;;2.05;57.00
10145;BME280;5113;41.822;23.564;2024-01-15T08:48:15;-10981.41;;;1.70;58.29
10145;BME280;5113;41.822;23.564;2024-01-15T08:51:22;-11003.41;;;2.50;56.99
10145;BME280;5113;41.822;23.564;2024-01-15T08:54:30;-11004.09;;;2.52;57.30
10145;BME280;5113;41.822;23.564;2024-01-15T08:57:37;-11017.72;;;3.02;56.82
10145;BME280;5113;41.822;23.564;2024-01-15T09:00:45;-11024.88;;;3.27;55.74
10145;BME280;5113;41.822;23.564;2024-01-15T09:03:52;-11016.44;;;2.97;56.52
10145;BME280;5113;41.822;23.564;2024-01-15T09:06:59;-11021.78;;;3.16;56.13
10145;BME280;5113;41.822;23.564;2024-01-15T09:10:08;-11041.69;;;3.88;55.77
10145;BME280;5113;41.822;23.564;2024-01-15T09:13:15;-11041.56;;;3.88;54.46
10145;BME280;5113;41.822;23.564;2024-01-15T09:16:21;-11049.00;;;4.15;54.35
10145;BME280;5113;41.822;23.564;2024-01-15T09:19:29;-11039.72;;;3.81;54.76
10145;BME280;5113;41.822;23.564;2024-01-15T09:22:38;-11041.13;;;3.86;53.85
10145;BME280;5113;41.822;23.564;2024-01-15T09:25:47;-11043.66;;;3.95;54.39
10145;BME280;5113;41.822;23.564;2024-01-15T09:28:54;-11059.66;;;4.53;53.62
10145;BME280;5113;41.822;23.564;2024-01-15T09:32:01;-11044.94;;;4.00;54.58
10145;BME280;5113;41.822;23.564;2024-01-15T09:35:09;-11069.47;;;4.89;52.10
10145;BME280;5113;41.822;23.564;2024-01-15T09:38:16;-11059.09;;;4.51;53.03
10145;BME280;5113;41.822;23.564;2024-01-15T09:41:25;-11059.94;;;4.54;51.72
10145;BME280;5113;41.822;23.564;2024-01-15T09:44:32;-11057.69;;;4.46;53.20
10145;BME280;5113;41.822;23.564;2024-01-15T09:47:40;-11067.50;;;4.82;52.18
10145;BME280;5113;41.822;23.564;2024-01-15T09:50:50;-11070.88;;;4.94;52.48
10145;BME280;5113;41.822;23.564;2024-01-15T09:53:58;-11081.84;;;5.34;52.18
10145;BME280;5113;41.822;23.564;2024-01-15T09:57:07;-11045.06;;;4.01;53.88
10145;BME280;5113;41.822;23.564;2024-01-15T10:00:17;-11066.81;;;4.79;53.64
10145;BME280;5113;41.822;23.564;2024-01-15T10:03:24;-11094.31;;;5.79;51.65
10145;BME280;5113;41.822;23.564;2024-01-15T10:06:31;-11098.81;;;5.95;51.55
10145;BME280;5113;41.822;23.564;2024-01-15T10:09:39;-11092.22;;;5.71;51.16
10145;BME280;5113;41.822;23.564;2024-01-15T10:12:46;-11092.50;;;5.72;52.46
10145;BME280;5113;41.822;23.564;2024-01-15T10:15:54;-11082.53;;;5.36;51.74
10145;BME280;5113;41.822;23.564;2024-01-15T10:19:01;-11087.72;;;5.55;52.90
10145;BME280;5113;41.822;23.564;2024-01-15T10:22:08;-11091.09;;;5.67;53.10
10145;BME280;5113;41.822;23.564;2024-01-15T10:25:16;-11078.88;;;5.23;54.12
10145;BME280;5113;41.822;23.564;2024-01-15T10:28:30;-11071.31;;;4.95;54.27
10145;BME280;5113;41.822;23.564;2024-01-15T10:31:37;-11093.06;;;5.74;52.84
10145;BME280;5113;41.822;23.564;2024-01-15T10:34:45;-11089.13;;;5.60;53.94
10145;BME280;5113;41.822;23.564;2024-01-15T10:37:52;-11090.97;;;5.67;52.24
10145;BME280;5113;41.822;23.564;2024-01-15T10:40:59;-11091.94;;;5.70;52.57
10145;BME280;5113;41.822;23.564;2024-01-15T10:44:07;-11099.53;;;5.97;52.20
10145;BME280;5113;41.822;23.564;2024-01-15T10:47:14;-11108.37;;;6.29;50.79
10145;BME280;5113;41.822;23.564;2024-01-15T10:50:21;-11093.06;;;5.74;51.52
10145;BME280;5113;41.822;23.564;2024-01-15T10:53:29;-11091.94;;;5.70;51.54
10145;BME280;5113;41.822;23.564;2024-01-15T10:56:39;-11098.69;;;5.94;51.75
10145;BME280;5113;41.822;23.564;2024-01-15T10:59:47;-11090.25;;;5.64;52.06
10145;BME280;5113;41.822;23.564;2024-01-15T11:02:54;-11061.47;;;4.60;52.28
10145;BME280;5113;41.822;23.564;2024-01-15T11:06:02;-11102.06;;;6.07;50.98
10145;BME280;5113;41.822;23.564;2024-01-15T11:09:08;-11101.22;;;6.04;50.20
10145;BME280;5113;41.822;23.564;2024-01-15T11:12:17;-11065.56;;;4.75;52.32
10145;BME280;5113;41.822;23.564;2024-01-15T11:15:26;-11108.66;;;6.31;50.43
10145;BME280;5113;41.822;23.564;2024-01-15T11:18:36;-11089.97;;;5.63;51.46
10145;BME280;5113;41.822;23.564;2024-01-15T11:21:46;-11111.88;;;6.42;49.61
10145;BME280;5113;41.822;23.564;2024-01-15T11:24:52;-11090.25;;;5.64;49.30
10145;BME280;5113;41.822;23.564;2024-01-15T11:27:59;-11093.06;;;5.74;49.12
10145;BME280;5113;41.822;23.564;2024-01-15T11:31:07;-11114.41;;;6.51;49.60
10145;BME280;5113;41.822;23.564;2024-01-15T11:34:14;-11126.06;;;6.93;48.03
10145;BME280;5113;41.822;23.564;2024-01-15T11:37:21;-11091.66;;;5.69;49.57
10145;BME280;5113;41.822;23.564;2024-01-15T11:40:39;-11114.28;;;6.51;48.89
10145;BME280;5113;41.822;23.564;2024-01-15T11:43:47;-11100.50;;;6.01;49.80
10145;BME280;5113;41.822;23.564;2024-01-15T11:46:59;-11125.66;;;6.92;49.45
10145;BME280;5113;41.822;23.564;2024-01-15T11:50:08;-11117.78;;;6.63;48.28
10145;BME280;5113;41.822;23.564;2024-01-15T11:53:18;-11119.75;;;6.71;48.54
10145;BME280;5113;41.822;23.564;2024-01-15T11:56:27;-11121.28;;;6.76;49.33
10145;BME280;5113;41.822;23.564;2024-01-15T11:59:34;-11111.59;;;6.41;49.01
10145;BME280;5113;41.822;23.564;2024-01-15T12:02:42;-11104.59;;;6.16;49.58
10145;BME280;5113;41.822;23.564;2024-01-15T12:05:49;-11104.31;;;6.15;48.41
10145;BME280;5113;41.822;23.564;2024-01-15T12:09:06;-11103.88;;;6.13;48.12
10145;BME280;5113;41.822;23.564;2024-01-15T12:12:19;-11098.97;;;5.95;48.88
10145;BME280;5113;41.822;23.564;2024-01-15T12:15:29;-11123.41;;;6.84;48.26
10145;BME280;5113;41.822;23.564;2024-01-15T12:18:38;-11087.59;;;5.54;48.47
10145;BME280;5113;41.822;23.564;2024-01-15T12:21:45;-11118.91;;;6.68;47.35
10145;BME280;5113;41.822;23.564;2024-01-15T12:24:53;-11093.63;;;5.76;48.01
10145;BME280;5113;41.822;23.564;2024-01-15T12:28:00;-11132.09;;;7.15;46.77
10145;BME280;5113;41.822;23.564;2024-01-15T12:31:07;-11110.75;;;6.38;46.56
10145;BME280;5113;41.822;23.564;2024-01-15T12:34:15;-11124.66;;;6.88;45.62
10145;BME280;5113;41.822;23.564;2024-01-15T12:37:24;-11128.19;;;7.01;46.05
10145;BME280;5113;41.822;23.564;2024-01-15T12:40:31;-11130.28;;;7.09;45.82
10145;BME280;5113;41.822;23.564;2024-01-15T12:43:41;-11126.22;;;6.94;46.52
10145;BME280;5113;41.822;23.564;2024-01-15T12:46:48;-11123.81;;;6.85;46.91
10145;BME280;5113;41.822;23.564;2024-01-15T12:49:57;-11134.06;;;7.22;46.13
10145;BME280;5113;41.822;23.564;2024-01-15T12:53:19;-11126.91;;;6.96;46.78
10145;BME280;5113;41.822;23.564;2024-01-15T12:56:26;-11142.78;;;7.54;45.96
10145;BME280;5113;41.822;23.564;2024-01-15T12:59:32;-11126.22;;;6.94;46.65
10145;BME280;5113;41.822;23.564;2024-01-15T13:02:39;-11129.03;;;7.04;46.46
10145;BME280;5113;41.822;23.564;2024-01-15T13:05:48;-11130.97;;;7.11;46.84
10145;BME280;5113;41.822;23.564;2024-01-15T13:08:57;-11145.31;;;7.63;46.74
10145;BME280;5113;41.822;23.564;2024-01-15T13:12:04;-11143.62;;;7.57;46.56
10145;BME280;5113;41.822;23.564;2024-01-15T13:15:11;-11128.59;;;7.03;46.81
10145;BME280;5113;41.822;23.564;2024-01-15T13:18:19;-11116.38;;;6.58;47.50
10145;BME280;5113;41.822;23.564;2024-01-15T13:21:28;-11137.16;;;7.34;47.39
10145;BME280;5113;41.822;23.564;2024-01-15T13:24:34;-11131.25;;;7.12;46.97
10145;BME280;5113;41.822;23.564;2024-01-15T13:27:40;-11117.94;;;6.64;47.06
10145;BME280;5113;41.822;23.564;2024-01-15T13:30:47;-11130.00;;;7.08;46.47
10145;BME280;5113;41.822;23.564;2024-01-15T13:33:55;-11102.34;;;6.08;47.81
10145;BME280;5113;41.822;23.564;2024-01-15T13:37:04;-11124.94;;;6.89;47.79
10145;BME280;5113;41.822;23.564;2024-01-15T13:40:11;-11133.94;;;7.22;46.98
10145;BME280;5113;41.822;23.564;2024-01-15T13:43:22;-11128.75;;;7.03;47.13
10145;BME280;5113;41.822;23.564;2024-01-15T13:46:29;-11102.06;;;6.07;48.78
10145;BME280;5113;41.822;23.564;2024-01-15T13:49:35;-11132.66;;;7.17;46.38
10145;BME280;5113;41.822;23.564;2024-01-15T13:52:44;-11116.81;;;6.60;48.33
10145;BME280;5113;41.822;23.564;2024-01-15T13:55:50;-11124.81;;;6.89;47.70
10145;BME280;5113;41.822;23.564;2024-01-15T13:58:56;-11082.69;;;5.37;49.72
10145;BME280;5113;41.822;23.564;2024-01-15T14:02:03;-11127.06;;;6.97;48.04
10145;BME280;5113;41.822;23.564;2024-01-15T14:05:10;-11127.91;;;7.00;47.47
10145;BME280;5113;41.822;23.564;2024-01-15T14:08:19;-11120.31;;;6.73;48.30
10145;BME280;5113;41.822;23.564;2024-01-15T14:11:26;-11126.78;;;6.96;47.50
10145;BME280;5113;41.822;23.564;2024-01-15T14:14:33;-11149.38;;;7.78;46.62
10145;BME280;5113;41.822;23.564;2024-01-15T14:17:39;-11143.91;;;7.58;46.79
10145;BME280;5113;41.822;23.564;2024-01-15T14:20:46;-11131.81;;;7.14;47.76
10145;BME280;5113;41.822;23.564;2024-01-15T14:23:54;-11117.78;;;6.63;48.87
10145;BME280;5113;41.822;23.564;2024-01-15T14:27:01;-11126.91;;;6.96;48.31
10145;BME280;5113;41.822;23.564;2024-01-15T14:30:08;-11130.00;;;7.08;48.27
10145;BME280;5113;41.822;23.564;2024-01-15T14:33:15;-11136.59;;;7.32;48.41
10145;BME280;5113;41.822;23.564;2024-01-15T14:36:22;-11151.78;;;7.86;47.31
10145;BME280;5113;41.822;23.564;2024-01-15T14:39:30;-11128.31;;;7.02;48.51
10145;BME280;5113;41.822;23.564;2024-01-15T14:42:39;-11128.47;;;7.02;48.65
10145;BME280;5113;41.822;23.564;2024-01-15T14:45:46;-11139.84;;;7.43;48.49
10145;BME280;5113;41.822;23.564;2024-01-15T14:48:53;-11116.38;;;6.58;50.88
10145;BME280;5113;41.822;23.564;2024-01-15T14:52:00;-11143.62;;;7.57;49.14
10145;BME280;5113;41.822;23.564;2024-01-15T14:55:08;-11129.72;;;7.07;50.20
10145;BME280;5113;41.822;23.564;2024-01-15T14:58:16;-11128.19;;;7.01;50.32
10145;BME280;5113;41.822;23.564;2024-01-15T15:01:22;-11142.66;;;7.53;49.43
10145;BME280;5113;41.822;23.564;2024-01-15T15:04:30;-11120.44;;;6.73;50.87
10145;BME280;5113;41.822;23.564;2024-01-15T15:07:37;-11108.66;;;6.31;51.51
10145;BME280;5113;41.822;23.564;2024-01-15T15:10:45;-11119.03;;;6.68;51.80
10145;BME280;5113;41.822;23.564;2024-01-15T15:13:52;-11111.03;;;6.39;51.57
10145;BME280;5113;41.822;23.564;2024-01-15T15:16:59;-11104.59;;;6.16;51.94
10145;BME280;5113;41.822;23.564;2024-01-15T15:20:06;-11120.31;;;6.73;52.20
10145;BME280;5113;41.822;23.564;2024-01-15T15:23:13;-11088.28;;;5.57;53.77
10145;BME280;5113;41.822;23.564;2024-01-15T15:26:21;-11101.50;;;6.05;53.52
10145;BME280;5113;41.822;23.564;2024-01-15T15:29:28;-11100.66;;;6.02;52.57
10145;BME280;5113;41.822;23.564;2024-01-15T15:32:35;-11101.78;;;6.06;52.89
10145;BME280;5113;41.822;23.564;2024-01-15T15:35:43;-11134.34;;;7.23;50.76
10145;BME280;5113;41.822;23.564;2024-01-15T15:38:50;-11126.91;;;6.96;50.97
10145;BME280;5113;41.822;23.564;2024-01-15T15:42:01;-11137.44;;;7.35;50.76
10145;BME280;5113;41.822;23.564;2024-01-15T15:45:08;-11123.69;;;6.85;51.66
10145;BME280;5113;41.822;23.564;2024-01-15T15:48:15;-11106.28;;;6.22;51.98
10145;BME280;5113;41.822;23.564;2024-01-15T15:51:22;-11120.31;;;6.73;51.32
10145;BME280;5113;41.822;23.564;2024-01-15T15:54:29;-11135.47;;;7.27;50.25
10145;BME280;5113;41.822;23.564;2024-01-15T15:57:37;-11137.16;;;7.34;50.94
10145;BME280;5113;41.822;23.564;2024-01-15T16:00:45;-11136.03;;;7.29;50.50
10145;BME280;5113;41.822;23.564;2024-01-15T16:03:51;-11119.19;;;6.69;51.70
10145;BME280;5113;41.822;23.564;2024-01-15T16:06:59;-11112.44;;;6.44;51.91
10145;BME280;5113;41.822;23.564;2024-01-15T16:10:07;-11118.06;;;6.65;52.22
10145;BME280;5113;41.822;23.564;2024-01-15T16:13:16;-11097.69;;;5.91;53.68
10145;BME280;5113;41.822;23.564;2024-01-15T16:16:23;-11095.59;;;5.83;53.93
10145;BME280;5113;41.822;23.564;2024-01-15T16:19:49;-11083.22;;;5.39;54.98
10145;BME280;5113;41.822;23.564;2024-01-15T16:23:15;-11104.88;;;6.17;53.77
10145;BME280;5113;41.822;23.564;2024-01-15T16:26:42;-11117.38;;;6.62;53.01